createdAt,value
2022-07-27T00:00:46.334Z,100.00
2022-07-27T00:03:12.742Z,100.00
2022-07-27T00:05:39.085Z,100.00
2022-07-27T00:08:05.804Z,100.00
2022-07-27T00:10:33.519Z,100.00
2022-07-27T00:12:59.896Z,100.00
2022-07-27T00:15:26.341Z,100.00
2022-07-27T00:17:52.659Z,100.00
2022-07-27T00:20:19.005Z,100.00
2022-07-27T00:22:53.485Z,100.00
2022-07-27T00:25:20.990Z,100.00
2022-07-27T00:27:48.738Z,100.00
2022-07-27T00:30:15.097Z,100.00
2022-07-27T00:32:43.231Z,100.00
2022-07-27T00:35:09.852Z,100.00
2022-07-27T00:37:36.189Z,100.00
2022-07-27T00:40:02.940Z,100.00
2022-07-27T00:42:29.259Z,100.00
2022-07-27T00:44:57.196Z,100.00
2022-07-27T00:47:23.981Z,100.00
2022-07-27T00:49:50.468Z,100.00
2022-07-27T00:52:17.357Z,100.00
2022-07-27T00:54:44.358Z,100.00
2022-07-27T00:57:11.095Z,100.00
2022-07-27T00:59:37.879Z,100.00
2022-07-27T01:02:11.071Z,100.00
2022-07-27T01:04:38.888Z,100.00
2022-07-27T01:07:06.378Z,100.00
2022-07-27T01:09:33.240Z,100.00
2022-07-27T01:11:59.687Z,100.00
2022-07-27T01:14:28.511Z,100.00
2022-07-27T01:16:55.102Z,100.00
2022-07-27T01:19:22.767Z,100.00
2022-07-27T01:21:50.424Z,100.00
2022-07-27T01:24:16.779Z,100.00
2022-07-27T01:26:43.158Z,100.00
2022-07-27T01:29:09.835Z,100.00
2022-07-27T01:31:36.486Z,100.00
2022-07-27T01:34:04.125Z,100.00
2022-07-27T01:36:30.515Z,100.00
2022-07-27T01:38:58.223Z,100.00
2022-07-27T01:41:25.240Z,100.00
2022-07-27T01:43:51.608Z,100.00
2022-07-27T01:46:17.975Z,100.00
2022-07-27T01:48:44.453Z,100.00
2022-07-27T01:51:10.832Z,100.00
2022-07-27T01:53:37.201Z,100.00
2022-07-27T01:56:08.837Z,100.00
2022-07-27T01:58:36.275Z,100.00
2022-07-27T02:01:02.611Z,100.00
2022-07-27T02:03:28.937Z,100.00
2022-07-27T02:05:55.316Z,100.00
2022-07-27T02:08:21.668Z,100.00
2022-07-27T02:10:48.019Z,100.00
2022-07-27T02:13:22.292Z,100.00
2022-07-27T02:15:49.671Z,100.00
2022-07-27T02:18:33.001Z,100.00
2022-07-27T02:21:00.202Z,100.00
2022-07-27T02:23:26.567Z,100.00
2022-07-27T02:25:52.920Z,100.00
2022-07-27T02:28:20.598Z,100.00
2022-07-27T02:30:46.941Z,100.00
2022-07-27T02:33:13.455Z,100.00
2022-07-27T02:35:39.858Z,100.00
2022-07-27T02:38:06.377Z,100.00
2022-07-27T02:40:32.777Z,100.00
2022-07-27T02:42:59.242Z,100.00
2022-07-27T02:45:26.971Z,100.00
2022-07-27T02:47:53.331Z,100.00
2022-07-27T02:50:19.669Z,100.00
2022-07-27T02:52:46.144Z,100.00
2022-07-27T02:55:12.491Z,100.00
2022-07-27T02:57:38.824Z,100.00
2022-07-27T03:00:06.217Z,100.00
2022-07-27T03:02:33.917Z,100.00
2022-07-27T03:05:00.897Z,100.00
2022-07-27T03:07:27.241Z,100.00
2022-07-27T03:09:53.584Z,100.00
2022-07-27T03:12:19.920Z,100.00
2022-07-27T03:14:46.275Z,100.00
2022-07-27T03:17:12.610Z,100.00
2022-07-27T03:19:40.512Z,100.00
2022-07-27T03:22:06.875Z,100.00
2022-07-27T03:24:33.251Z,100.00
2022-07-27T03:26:59.756Z,100.00
2022-07-27T03:29:29.376Z,100.00
2022-07-27T03:31:56.276Z,100.00
2022-07-27T03:34:22.616Z,100.00
2022-07-27T03:36:50.298Z,100.00
2022-07-27T03:39:16.615Z,100.00
2022-07-27T03:41:42.976Z,100.00
2022-07-27T03:44:09.308Z,100.00
2022-07-27T03:46:35.661Z,100.00
2022-07-27T03:49:02.083Z,100.00
2022-07-27T03:51:40.706Z,100.00
2022-07-27T03:54:08.425Z,100.00
2022-07-27T03:56:34.761Z,100.00
2022-07-27T03:59:01.116Z,100.00
2022-07-27T04:01:27.595Z,100.00
2022-07-27T04:03:54.069Z,100.00
2022-07-27T04:06:20.399Z,100.00
2022-07-27T04:08:46.739Z,100.00
2022-07-27T04:11:15.896Z,100.00
2022-07-27T04:13:45.503Z,100.00
2022-07-27T04:16:13.783Z,100.00
2022-07-27T04:18:40.202Z,100.00
2022-07-27T04:21:06.533Z,100.00
2022-07-27T04:23:37.975Z,100.00
2022-07-27T04:26:04.726Z,100.00
2022-07-27T04:28:32.400Z,100.00
2022-07-27T04:30:58.806Z,100.00
2022-07-27T04:33:25.240Z,100.00
2022-07-27T04:35:51.587Z,100.00
2022-07-27T04:38:17.903Z,100.00
2022-07-27T04:40:44.249Z,100.00
2022-07-27T04:43:10.587Z,100.00
2022-07-27T04:45:38.338Z,100.00
2022-07-27T04:48:05.282Z,100.00
2022-07-27T04:50:31.633Z,100.00
2022-07-27T04:52:57.992Z,100.00
2022-07-27T04:55:24.359Z,100.00
2022-07-27T04:57:50.688Z,100.00
2022-07-27T05:00:17.378Z,100.00
2022-07-27T05:02:45.071Z,100.00
2022-07-27T05:05:11.419Z,100.00
2022-07-27T05:07:37.771Z,100.00
2022-07-27T05:10:04.480Z,100.00
2022-07-27T05:12:30.854Z,100.00
2022-07-27T05:14:57.192Z,100.00
2022-07-27T05:17:23.530Z,100.00
2022-07-27T05:19:51.249Z,100.00
2022-07-27T05:22:17.588Z,100.00
2022-07-27T05:24:43.947Z,100.00
2022-07-27T05:27:10.265Z,100.00
2022-07-27T05:29:36.580Z,100.00
2022-07-27T05:32:03.117Z,100.00
2022-07-27T05:34:29.464Z,100.00
2022-07-27T05:36:57.229Z,100.00
2022-07-27T05:39:23.561Z,100.00
2022-07-27T05:41:49.910Z,100.00
2022-07-27T05:44:16.339Z,100.00
2022-07-27T05:46:42.665Z,100.00
2022-07-27T05:49:09.310Z,100.00
2022-07-27T05:51:36.303Z,100.00
2022-07-27T05:54:04.149Z,100.00
2022-07-27T05:56:30.526Z,100.00
2022-07-27T05:58:56.853Z,100.00
2022-07-27T06:01:23.240Z,100.00
2022-07-27T06:03:49.715Z,100.00
2022-07-27T06:06:16.069Z,100.00
2022-07-27T06:08:42.452Z,100.00
2022-07-27T06:11:10.254Z,100.00
2022-07-27T06:13:36.575Z,100.00
2022-07-27T06:16:03.425Z,100.00
2022-07-27T06:18:29.822Z,100.00
2022-07-27T06:20:56.178Z,100.00
2022-07-27T06:23:22.644Z,100.00
2022-07-27T06:25:48.985Z,100.00
2022-07-27T06:28:16.735Z,100.00
2022-07-27T06:30:43.055Z,100.00
2022-07-27T06:33:09.395Z,100.00
2022-07-27T06:35:37.843Z,100.00
2022-07-27T06:38:05.716Z,100.00
2022-07-27T06:40:32.086Z,100.00
2022-07-27T06:42:58.653Z,100.00
2022-07-27T06:45:26.711Z,100.00
2022-07-27T06:47:53.068Z,100.00
2022-07-27T06:50:20.261Z,100.00
2022-07-27T06:52:46.854Z,100.00
2022-07-27T06:55:13.310Z,100.00
2022-07-27T06:57:39.782Z,100.00
2022-07-27T07:00:06.689Z,100.00
2022-07-27T07:02:34.337Z,100.00
2022-07-27T07:05:00.681Z,100.00
2022-07-27T07:07:27.107Z,100.00
2022-07-27T07:09:53.469Z,100.00
2022-07-27T07:12:19.804Z,100.00
2022-07-27T07:14:46.184Z,100.00
2022-07-27T07:17:12.544Z,100.00
2022-07-27T07:19:40.242Z,100.00
2022-07-27T07:22:06.586Z,100.00
2022-07-27T07:24:32.912Z,100.00
2022-07-27T07:26:59.231Z,100.00
2022-07-27T07:29:25.555Z,100.00
2022-07-27T07:31:52.021Z,100.00
2022-07-27T07:34:18.444Z,100.00
2022-07-27T07:36:46.139Z,100.00
2022-07-27T07:39:12.752Z,100.00
2022-07-27T07:41:39.365Z,100.00
2022-07-27T07:44:05.713Z,100.00
2022-07-27T07:46:32.107Z,100.00
2022-07-27T07:48:58.566Z,100.00
2022-07-27T07:51:24.970Z,100.00
2022-07-27T07:53:52.681Z,100.00
2022-07-27T07:56:19.009Z,100.00
2022-07-27T07:58:45.333Z,100.00
2022-07-27T08:01:11.684Z,100.00
2022-07-27T08:03:38.247Z,100.00
2022-07-27T08:06:04.597Z,100.00
2022-07-27T08:08:30.909Z,100.00
2022-07-27T08:10:58.626Z,100.00
2022-07-27T08:13:24.955Z,100.00
2022-07-27T08:15:51.803Z,100.00
2022-07-27T08:18:18.978Z,100.00
2022-07-27T08:20:45.283Z,100.00
2022-07-27T08:23:11.640Z,100.00
2022-07-27T08:25:39.427Z,100.00
2022-07-27T08:28:07.460Z,100.00
2022-07-27T08:30:34.105Z,100.00
2022-07-27T08:33:01.514Z,100.00
2022-07-27T08:35:28.595Z,100.00
2022-07-27T08:37:55.232Z,100.00
2022-07-27T08:40:40.282Z,100.00
2022-07-27T08:43:09.101Z,100.00
2022-07-27T08:45:36.002Z,100.00
2022-07-27T08:48:02.332Z,100.00
2022-07-27T08:50:29.050Z,100.00
2022-07-27T08:52:56.238Z,100.00
2022-07-27T08:55:23.136Z,100.00
2022-07-27T08:57:49.612Z,100.00
2022-07-27T09:00:17.885Z,100.00
2022-07-27T09:02:44.863Z,100.00
2022-07-27T09:05:11.694Z,100.00
2022-07-27T09:07:38.043Z,100.00
2022-07-27T09:10:05.196Z,100.00
2022-07-27T09:12:31.965Z,100.00
2022-07-27T09:15:03.891Z,100.00
2022-07-27T09:17:48.927Z,100.00
2022-07-27T09:20:18.566Z,100.00
2022-07-27T09:22:46.848Z,100.00
2022-07-27T09:25:13.956Z,100.00
2022-07-27T09:27:40.547Z,100.00
2022-07-27T09:30:09.931Z,100.00
2022-07-27T09:32:38.130Z,100.00
2022-07-27T09:35:17.449Z,100.00
2022-07-27T09:37:44.022Z,100.00
2022-07-27T09:40:11.023Z,100.00
2022-07-27T09:45:32.455Z,100.00
2022-07-27T09:48:11.994Z,100.00
2022-07-27T09:50:48.713Z,100.00
2022-07-27T09:53:42.363Z,100.00
2022-07-27T09:56:10.400Z,100.00
2022-07-27T09:58:40.996Z,100.00
2022-07-27T10:01:07.835Z,100.00
2022-07-27T10:03:35.737Z,100.00
2022-07-27T10:06:02.581Z,100.00
2022-07-27T10:08:28.924Z,100.00
2022-07-27T10:10:55.861Z,100.00
2022-07-27T10:13:22.965Z,100.00
2022-07-27T10:15:49.642Z,100.00
2022-07-27T10:18:19.625Z,100.00
2022-07-27T10:20:47.842Z,100.00
2022-07-27T10:23:24.576Z,100.00
2022-07-27T10:26:11.228Z,100.00
2022-07-27T10:28:47.984Z,100.00
2022-07-27T10:31:17.813Z,100.00
2022-07-27T10:33:45.266Z,100.00
2022-07-27T10:36:16.953Z,100.00
2022-07-27T10:38:48.660Z,100.00
2022-07-27T10:41:20.671Z,100.00
2022-07-27T10:43:47.022Z,100.00
2022-07-27T10:46:18.944Z,100.00
2022-07-27T10:48:49.048Z,100.00
2022-07-27T10:51:32.319Z,100.00
2022-07-27T10:54:13.969Z,100.00
2022-07-27T10:56:44.349Z,100.00
2022-07-27T10:59:10.675Z,100.00
2022-07-27T11:01:54.846Z,100.00
2022-07-27T11:04:21.409Z,100.00
2022-07-27T11:07:23.057Z,100.00
2022-07-27T11:12:29.255Z,100.00
2022-07-27T11:14:56.721Z,100.00
2022-07-27T11:17:50.806Z,100.00
2022-07-27T11:20:11.039Z,100.00
2022-07-27T11:25:27.687Z,100.00
2022-07-27T11:27:54.010Z,100.00
2022-07-27T11:30:24.487Z,100.00
2022-07-27T11:32:50.948Z,100.00
2022-07-27T11:35:20.052Z,100.00
2022-07-27T11:37:58.818Z,100.00
2022-07-27T11:43:11.951Z,100.00
2022-07-27T11:45:42.020Z,100.00
2022-07-27T11:48:08.420Z,100.00
2022-07-27T11:50:34.758Z,100.00
2022-07-27T11:53:02.458Z,100.00
2022-07-27T11:55:28.797Z,100.00
2022-07-27T11:58:01.775Z,100.00
2022-07-27T12:00:39.159Z,100.00
2022-07-27T12:03:05.484Z,100.00
2022-07-27T12:05:31.912Z,100.00
2022-07-27T12:07:58.445Z,100.00
2022-07-27T12:10:26.144Z,100.00
2022-07-27T12:12:52.461Z,100.00
2022-07-27T12:15:44.276Z,100.00
2022-07-27T12:18:06.124Z,97.82
2022-07-27T12:20:33.755Z,91.37
2022-07-27T12:23:04.129Z,88.94
2022-07-27T12:25:31.986Z,83.80
2022-07-27T12:27:59.080Z,87.00
2022-07-27T12:30:29.477Z,87.27
2022-07-27T12:32:55.928Z,88.22
2022-07-27T12:35:23.582Z,84.07
2022-07-27T12:37:55.984Z,85.21
2022-07-27T12:40:22.308Z,88.33
2022-07-27T12:42:56.440Z,88.38
2022-07-27T12:45:22.955Z,86.72
2022-07-27T12:47:49.302Z,88.07
2022-07-27T12:50:16.998Z,92.14
2022-07-27T12:52:45.411Z,94.85
2022-07-27T12:55:15.642Z,98.02
2022-07-27T12:57:55.043Z,99.26
2022-07-27T13:00:26.712Z,99.69
2022-07-27T13:02:57.511Z,96.13
2022-07-27T13:05:24.275Z,95.93
2022-07-27T13:07:50.867Z,96.85
2022-07-27T13:10:17.713Z,96.29
2022-07-27T13:12:44.391Z,98.05
2022-07-27T13:15:11.169Z,94.90
2022-07-27T13:17:39.219Z,96.03
2022-07-27T13:20:06.388Z,98.07
2022-07-27T13:22:32.705Z,94.37
2022-07-27T13:24:59.044Z,95.33
2022-07-27T13:27:25.365Z,96.77
2022-07-27T13:29:51.769Z,95.00
2022-07-27T13:32:18.535Z,92.74
2022-07-27T13:34:46.299Z,93.49
2022-07-27T13:37:12.641Z,91.36
2022-07-27T13:39:38.973Z,92.17
2022-07-27T13:42:05.443Z,90.38
2022-07-27T13:44:59.374Z,92.44
2022-07-27T13:47:18.140Z,87.68
2022-07-27T13:49:45.807Z,84.96
2022-07-27T13:52:12.139Z,87.28
2022-07-27T13:54:38.482Z,84.62
2022-07-27T13:57:04.818Z,88.24
2022-07-27T13:59:31.156Z,84.04
2022-07-27T14:01:57.654Z,83.28
2022-07-27T14:04:24.118Z,85.87
2022-07-27T14:06:53.397Z,83.51
2022-07-27T14:09:20.717Z,87.57
2022-07-27T14:11:51.093Z,90.83
2022-07-27T14:14:26.765Z,94.23
2022-07-27T14:16:53.556Z,92.24
2022-07-27T14:19:20.394Z,94.07
2022-07-27T14:21:47.607Z,93.59
2022-07-27T14:24:15.278Z,92.11
2022-07-27T14:26:41.600Z,87.82
2022-07-27T14:29:07.951Z,90.15
2022-07-27T14:31:34.334Z,88.46
2022-07-27T14:34:00.704Z,88.64
2022-07-27T14:36:27.024Z,83.91
2022-07-27T14:38:53.345Z,87.48
2022-07-27T14:41:21.044Z,86.65
2022-07-27T14:43:47.387Z,86.48
2022-07-27T14:46:13.749Z,85.90
2022-07-27T14:49:05.151Z,86.11
2022-07-27T14:51:26.435Z,86.76
2022-07-27T14:53:52.863Z,82.55
2022-07-27T14:56:22.298Z,85.47
2022-07-27T14:58:48.656Z,83.83
2022-07-27T15:01:16.872Z,83.31
2022-07-27T15:03:44.333Z,76.82
2022-07-27T15:06:10.719Z,75.23
2022-07-27T15:08:37.050Z,69.10
2022-07-27T15:11:03.459Z,72.27
2022-07-27T15:13:31.172Z,72.49
2022-07-27T15:15:57.545Z,76.23
2022-07-27T15:18:23.921Z,78.55
2022-07-27T15:20:50.248Z,77.49
2022-07-27T15:23:16.655Z,78.18
2022-07-27T15:25:42.989Z,79.57
2022-07-27T15:28:09.320Z,80.09
2022-07-27T15:30:38.784Z,78.52
2022-07-27T15:33:05.470Z,76.63
2022-07-27T15:35:31.804Z,78.90
2022-07-27T15:37:58.161Z,77.59
2022-07-27T15:40:24.501Z,76.70
2022-07-27T15:42:50.819Z,80.76
2022-07-27T15:45:17.163Z,79.22
2022-07-27T15:47:47.431Z,80.13
2022-07-27T15:50:15.908Z,78.12
2022-07-27T15:52:42.219Z,76.96
2022-07-27T15:55:08.563Z,77.14
2022-07-27T15:57:34.919Z,79.47
2022-07-27T16:00:01.284Z,70.93
2022-07-27T16:02:29.211Z,74.95
2022-07-27T16:04:59.441Z,76.77
2022-07-27T16:07:25.768Z,76.57
2022-07-27T16:09:52.093Z,76.88
2022-07-27T16:12:18.441Z,77.27
2022-07-27T16:14:45.297Z,75.89
2022-07-27T16:17:11.629Z,79.42
2022-07-27T16:19:37.971Z,80.03
2022-07-27T16:22:05.652Z,78.45
2022-07-27T16:24:36.432Z,78.89
2022-07-27T16:27:05.549Z,77.84
2022-07-27T16:29:31.910Z,79.08
2022-07-27T16:31:58.295Z,81.09
2022-07-27T16:34:24.972Z,75.49
2022-07-27T16:36:51.315Z,77.02
2022-07-27T16:39:19.041Z,76.63
2022-07-27T16:41:45.371Z,76.23
2022-07-27T16:44:11.730Z,76.42
2022-07-27T16:46:38.135Z,75.86
2022-07-27T16:49:04.586Z,77.00
2022-07-27T16:51:30.981Z,78.80
2022-07-27T16:53:57.297Z,77.04
2022-07-27T16:56:25.306Z,76.84
2022-07-27T16:58:51.639Z,79.33
2022-07-27T17:01:26.085Z,78.93
2022-07-27T17:03:53.511Z,77.55
2022-07-27T17:06:19.897Z,81.54
2022-07-27T17:08:46.241Z,78.38
2022-07-27T17:11:12.593Z,79.52
2022-07-27T17:13:46.151Z,76.68
2022-07-27T17:16:15.709Z,78.95
2022-07-27T17:18:42.188Z,78.95
2022-07-27T17:21:08.727Z,79.25
2022-07-27T17:23:35.055Z,80.63
2022-07-27T17:26:01.654Z,76.20
2022-07-27T17:28:28.036Z,79.01
2022-07-27T17:30:55.831Z,78.11
2022-07-27T17:33:22.207Z,76.59
2022-07-27T17:35:48.517Z,77.33
2022-07-27T17:38:14.875Z,78.32
2022-07-27T17:40:41.230Z,79.20
2022-07-27T17:43:07.552Z,79.98
2022-07-27T17:45:33.927Z,82.36
2022-07-27T17:48:01.594Z,82.40
2022-07-27T17:50:27.933Z,81.71
2022-07-27T17:52:54.259Z,81.50
2022-07-27T17:55:20.582Z,83.60
2022-07-27T17:57:46.925Z,80.49
2022-07-27T18:00:14.119Z,83.07
2022-07-27T18:02:40.475Z,83.59
2022-07-27T18:05:08.323Z,83.47
2022-07-27T18:07:38.918Z,85.03
2022-07-27T18:10:07.209Z,84.76
2022-07-27T18:12:33.566Z,86.02
2022-07-27T18:14:59.883Z,86.69
2022-07-27T18:17:26.472Z,84.92
2022-07-27T18:19:52.805Z,86.02
2022-07-27T18:22:20.487Z,85.28
2022-07-27T18:24:46.810Z,79.43
2022-07-27T18:27:13.149Z,80.40
2022-07-27T18:29:39.467Z,79.46
2022-07-27T18:32:05.909Z,79.99
2022-07-27T18:34:32.228Z,78.12
2022-07-27T18:36:58.561Z,83.23
2022-07-27T18:39:33.566Z,83.80
2022-07-27T18:42:00.448Z,85.11
2022-07-27T18:44:26.867Z,85.82
2022-07-27T18:46:53.169Z,86.17
2022-07-27T18:49:19.641Z,87.47
2022-07-27T18:51:46.118Z,88.57
2022-07-27T18:54:12.432Z,89.36
2022-07-27T18:56:40.174Z,90.66
2022-07-27T18:59:06.741Z,92.27
2022-07-27T19:01:33.155Z,94.09
2022-07-27T19:03:59.560Z,95.80
2022-07-27T19:06:28.281Z,97.75
2022-07-27T19:08:54.662Z,100.00
2022-07-27T19:11:21.284Z,100.00
2022-07-27T19:13:49.028Z,100.00
2022-07-27T19:16:15.363Z,100.00
2022-07-27T19:18:41.735Z,100.00
2022-07-27T19:21:08.055Z,100.00
2022-07-27T19:23:34.379Z,100.00
2022-07-27T19:26:00.720Z,100.00
2022-07-27T19:28:27.332Z,100.00
2022-07-27T19:30:55.149Z,100.00
2022-07-27T19:33:21.515Z,100.00
2022-07-27T19:35:47.850Z,100.00
2022-07-27T19:38:14.208Z,100.00
2022-07-27T19:40:44.594Z,100.00
2022-07-27T19:43:11.606Z,100.00
2022-07-27T19:45:38.166Z,100.00
2022-07-27T19:48:06.363Z,100.00
2022-07-27T19:50:32.853Z,100.00
2022-07-27T19:52:59.401Z,100.00
2022-07-27T19:55:25.765Z,100.00
2022-07-27T19:57:52.104Z,100.00
2022-07-27T20:00:18.472Z,100.00
2022-07-27T20:02:44.829Z,100.00
2022-07-27T20:05:12.696Z,100.00
2022-07-27T20:07:39.036Z,100.00
2022-07-27T20:10:06.065Z,100.00
2022-07-27T20:12:32.481Z,100.00
2022-07-27T20:14:58.818Z,100.00
2022-07-27T20:17:25.155Z,100.00
2022-07-27T20:19:51.535Z,100.00
2022-07-27T20:22:19.204Z,100.00
2022-07-27T20:24:45.560Z,100.00
2022-07-27T20:27:12.131Z,100.00
2022-07-27T20:29:38.566Z,100.00
2022-07-27T20:32:05.208Z,100.00
2022-07-27T20:34:31.531Z,100.00
2022-07-27T20:36:57.861Z,100.00
2022-07-27T20:39:25.999Z,100.00
2022-07-27T20:41:52.572Z,100.00
2022-07-27T20:44:18.935Z,100.00
2022-07-27T20:46:45.254Z,100.00
2022-07-27T20:49:11.885Z,100.00
2022-07-27T20:51:38.455Z,100.00
2022-07-27T20:54:05.069Z,100.00
2022-07-27T20:56:32.876Z,100.00
2022-07-27T20:58:59.260Z,100.00
2022-07-27T21:01:25.687Z,100.00
2022-07-27T21:03:52.077Z,100.00
2022-07-27T21:06:18.411Z,100.00
2022-07-27T21:08:46.834Z,100.00
2022-07-27T21:11:13.421Z,100.00
2022-07-27T21:13:41.316Z,100.00
2022-07-27T21:16:07.733Z,100.00
2022-07-27T21:18:34.113Z,100.00
2022-07-27T21:21:00.467Z,100.00
2022-07-27T21:23:26.803Z,100.00
2022-07-27T21:25:53.136Z,100.00
2022-07-27T21:28:23.640Z,100.00
2022-07-27T21:30:52.636Z,100.00
2022-07-27T21:33:19.030Z,100.00
2022-07-27T21:35:45.444Z,100.00
2022-07-27T21:38:11.795Z,100.00
2022-07-27T21:40:38.155Z,100.00
2022-07-27T21:43:04.521Z,100.00
2022-07-27T21:45:31.006Z,100.00
2022-07-27T21:47:58.715Z,100.00
2022-07-27T21:50:25.055Z,100.00
2022-07-27T21:52:51.377Z,100.00
2022-07-27T21:55:18.378Z,100.00
2022-07-27T21:57:49.530Z,100.00
2022-07-27T22:00:15.953Z,100.00
2022-07-27T22:02:42.348Z,100.00
2022-07-27T22:05:10.085Z,100.00
2022-07-27T22:07:36.433Z,100.00
2022-07-27T22:10:03.261Z,100.00
2022-07-27T22:12:29.609Z,100.00
2022-07-27T22:14:55.939Z,100.00
2022-07-27T22:17:22.253Z,100.00
2022-07-27T22:19:48.559Z,100.00
2022-07-27T22:22:16.268Z,100.00
2022-07-27T22:24:42.607Z,100.00
2022-07-27T22:27:08.941Z,100.00
2022-07-27T22:29:36.248Z,100.00
2022-07-27T22:32:02.669Z,100.00
2022-07-27T22:34:29.066Z,100.00
2022-07-27T22:36:55.391Z,100.00
2022-07-27T22:39:23.073Z,100.00
2022-07-27T22:41:49.448Z,100.00
2022-07-27T22:44:15.997Z,100.00
2022-07-27T22:46:46.623Z,100.00
2022-07-27T22:49:13.014Z,100.00
2022-07-27T22:51:49.661Z,100.00
2022-07-27T22:54:19.015Z,100.00
2022-07-27T22:56:47.085Z,100.00
2022-07-27T22:59:13.639Z,100.00
2022-07-27T23:01:47.182Z,100.00
2022-07-27T23:04:14.788Z,100.00
2022-07-27T23:06:41.605Z,100.00
2022-07-27T23:09:07.935Z,100.00
2022-07-27T23:11:34.258Z,100.00
2022-07-27T23:14:01.980Z,100.00
2022-07-27T23:16:28.393Z,100.00
2022-07-27T23:18:54.798Z,100.00
2022-07-27T23:21:21.180Z,100.00
2022-07-27T23:23:53.428Z,100.00
2022-07-27T23:26:20.160Z,100.00
2022-07-27T23:28:49.415Z,100.00
2022-07-27T23:31:17.148Z,100.00
2022-07-27T23:33:43.541Z,100.00
2022-07-27T23:36:09.971Z,100.00
2022-07-27T23:38:36.503Z,100.00
2022-07-27T23:41:02.864Z,100.00
2022-07-27T23:43:29.198Z,100.00
2022-07-27T23:45:55.740Z,100.00
2022-07-27T23:48:25.157Z,100.00
2022-07-27T23:50:52.099Z,100.00
2022-07-27T23:53:18.455Z,100.00
2022-07-27T23:55:45.156Z,100.00
2022-07-27T23:58:11.540Z,100.00
